Time;durP1;ratioP1;P1;durP2;ratioP2;P2;SDS_P1;SDS_P2;PMS_P1;PMS_P2;Temp;Humidity;BMP_temperature;BMP_pressure;BME280_temperature;BME280_humidity;BME280_pressure;Samples;Min_cycle;Max_cycle;Signal;HPM_P1;HPM_P2
2021/01/15 00:01:16;;;;;;;23.65;14.48;;;0.90;69.60;;;;;;5064413;28;20033;-57
2021/01/15 00:03:42;;;;;;;30.60;16.10;;;0.90;69.50;;;;;;5058833;28;20028;-60
2021/01/15 00:06:08;;;;;;;22.98;14.02;;;0.90;69.50;;;;;;5060920;28;20033;-59
2021/01/15 00:08:38;;;;;;;23.50;14.52;;;0.90;69.60;;;;;;5072768;28;20492;-58
2021/01/15 00:11:14;;;;;;;23.70;14.25;;;0.80;69.40;;;;;;5074301;28;20064;-60
2021/01/15 00:13:40;;;;;;;25.08;15.43;;;0.80;69.50;;;;;;5069997;28;20029;-60
2021/01/15 00:16:06;;;;;;;23.00;14.25;;;0.70;69.40;;;;;;5073834;28;20030;-59
2021/01/15 00:18:32;;;;;;;19.63;13.55;;;0.70;69.50;;;;;;5071724;28;20086;-59
2021/01/15 00:20:57;;;;;;;25.20;15.80;;;0.70;69.60;;;;;;5070888;28;20021;-59
2021/01/15 00:23:23;;;;;;;20.55;13.38;;;0.70;70.20;;;;;;5073650;28;20047;-60
2021/01/15 00:25:49;;;;;;;18.10;12.52;;;0.70;69.50;;;;;;5068318;28;20035;-59
2021/01/15 00:28:14;;;;;;;22.42;13.82;;;0.70;69.60;;;;;;5071361;28;20027;-60
2021/01/15 00:30:40;;;;;;;20.55;13.02;;;0.70;69.50;;;;;;5071012;28;20052;-59
2021/01/15 00:33:06;;;;;;;21.35;13.07;;;0.70;69.60;;;;;;5072220;28;20032;-59
2021/01/15 00:35:32;;;;;;;21.92;15.07;;;0.70;69.70;;;;;;5063801;28;20040;-57
2021/01/15 00:37:58;;;;;;;21.98;13.23;;;0.70;69.70;;;;;;5073011;28;20031;-59
2021/01/15 00:40:24;;;;;;;23.25;14.73;;;0.70;70.50;;;;;;5072837;28;20041;-58
2021/01/15 00:42:50;;;;;;;22.70;14.13;;;0.70;69.80;;;;;;5073766;28;20024;-59
2021/01/15 00:45:18;;;;;;;20.42;13.65;;;0.70;69.70;;;;;;5071108;28;20052;-60
2021/01/15 00:47:45;;;;;;;24.30;14.52;;;0.70;69.60;;;;;;5060079;28;20059;-60
2021/01/15 00:50:12;;;;;;;25.08;15.32;;;0.70;69.70;;;;;;5073940;28;20035;-59
2021/01/15 00:52:38;;;;;;;30.20;16.42;;;0.70;69.70;;;;;;5072604;28;20021;-60
2021/01/15 00:55:06;;;;;;;32.58;17.42;;;0.70;69.40;;;;;;5067233;28;20032;-58
2021/01/15 00:57:37;;;;;;;24.27;14.40;;;0.60;69.40;;;;;;5073419;28;20303;-60
2021/01/15 01:00:06;;;;;;;30.73;16.20;;;0.60;69.20;;;;;;5070832;28;20107;-60
2021/01/15 01:02:36;;;;;;;22.58;13.38;;;0.50;69.20;;;;;;5062789;28;20025;-59
2021/01/15 01:05:03;;;;;;;26.40;15.77;;;0.50;69.10;;;;;;5072670;28;20059;-59
2021/01/15 01:07:32;;;;;;;27.45;14.98;;;0.40;69.30;;;;;;5064112;28;20112;-58
2021/01/15 01:09:58;;;;;;;26.20;15.63;;;0.40;69.30;;;;;;5072976;28;20016;-59
2021/01/15 01:12:23;;;;;;;31.73;17.00;;;0.30;69.10;;;;;;5073362;28;20100;-60
2021/01/15 01:14:49;;;;;;;29.38;17.13;;;0.30;69.30;;;;;;5067297;28;20032;-58
2021/01/15 01:17:15;;;;;;;32.85;15.60;;;0.20;69.30;;;;;;5071889;28;20033;-60
2021/01/15 01:19:41;;;;;;;32.70;17.20;;;0.20;69.40;;;;;;5072952;28;20021;-60
2021/01/15 01:22:06;;;;;;;29.98;16.10;;;0.20;69.40;;;;;;5068123;28;20033;-60
2021/01/15 01:24:32;;;;;;;39.65;21.42;;;0.10;69.50;;;;;;5069798;28;20021;-60
2021/01/15 01:26:58;;;;;;;35.70;21.15;;;0.10;69.70;;;;;;5072815;28;20013;-58
2021/01/15 01:29:23;;;;;;;31.75;20.45;;;0.10;69.80;;;;;;5072421;28;20160;-60
2021/01/15 01:31:49;;;;;;;32.03;21.90;;;0.10;69.90;;;;;;5068699;28;20380;-60
2021/01/15 01:34:15;;;;;;;35.83;24.08;;;0.10;70.00;;;;;;5072026;28;20024;-57
2021/01/15 01:36:40;;;;;;;35.80;24.92;;;0.10;69.80;;;;;;5072889;28;20027;-59
2021/01/15 01:39:06;;;;;;;43.08;27.00;;;0.20;69.90;;;;;;5071914;28;20052;-60
2021/01/15 01:41:32;;;;;;;32.58;24.25;;;0.10;69.80;;;;;;5072339;28;20035;-58
2021/01/15 01:43:57;;;;;;;36.15;25.75;;;0.10;69.90;;;;;;5069409;28;20025;-59
2021/01/15 01:46:23;;;;;;;34.28;23.33;;;0.10;69.80;;;;;;5053229;28;20025;-59
2021/01/15 01:48:49;;;;;;;33.30;22.42;;;0.10;69.80;;;;;;5068113;28;20020;-60
2021/01/15 01:51:18;;;;;;;24.85;18.08;;;0.10;70.00;;;;;;5060052;28;20027;-58
2021/01/15 01:53:44;;;;;;;27.80;19.75;;;0.10;69.90;;;;;;5065896;28;20021;-58
2021/01/15 01:56:10;;;;;;;26.10;18.23;;;0.10;70.10;;;;;;5067826;28;20529;-58
2021/01/15 01:58:37;;;;;;;30.45;20.52;;;0.10;70.20;;;;;;5061247;28;20361;-59
2021/01/15 02:01:05;;;;;;;29.65;19.98;;;0.10;70.30;;;;;;5066107;28;20112;-58
2021/01/15 02:03:31;;;;;;;36.55;23.55;;;0.10;70.30;;;;;;5070525;28;20096;-60
2021/01/15 02:05:57;;;;;;;30.35;21.80;;;0.20;70.20;;;;;;5072233;28;20012;-58
2021/01/15 02:08:26;;;;;;;29.33;18.55;;;0.20;70.40;;;;;;5072296;28;20048;-59
2021/01/15 02:11:25;;;;;;;29.17;19.23;;;0.20;70.30;;;;;;5070153;28;20060;-60
2021/01/15 02:13:59;;;;;;;27.08;16.80;;;0.20;70.20;;;;;;5069112;28;20060;-60
2021/01/15 02:16:28;;;;;;;27.92;16.15;;;0.20;70.00;;;;;;5072247;28;20036;-60
2021/01/15 02:19:13;;;;;;;22.17;14.27;;;0.30;70.00;;;;;;5072075;28;20024;-59
2021/01/15 02:21:45;;;;;;;20.85;14.95;;;0.30;70.70;;;;;;5059182;28;20048;-59
2021/01/15 02:24:35;;;;;;;21.50;13.75;;;0.30;70.10;;;;;;5071803;28;20160;-60
2021/01/15 02:27:24;;;;;;;25.95;15.05;;;0.30;69.90;;;;;;5062884;28;20031;-59
2021/01/15 02:30:11;;;;;;;25.10;15.68;;;0.30;70.10;;;;;;5068271;28;20393;-60
2021/01/15 02:33:01;;;;;;;21.98;14.00;;;0.40;70.20;;;;;;5060306;28;20024;-60
2021/01/15 02:35:46;;;;;;;27.05;15.10;;;0.40;70.30;;;;;;5070598;28;20471;-60
2021/01/15 02:38:37;;;;;;;28.50;15.45;;;0.50;70.10;;;;;;5071457;28;20032;-60
2021/01/15 02:41:17;;;;;;;21.42;13.32;;;0.60;70.00;;;;;;5072121;28;20099;-59
2021/01/15 02:43:43;;;;;;;22.05;13.68;;;0.50;69.60;;;;;;5062461;28;20029;-60
2021/01/15 02:46:12;;;;;;;21.45;13.35;;;0.40;69.50;;;;;;5066419;28;20493;-59
2021/01/15 02:48:42;;;;;;;22.80;14.75;;;0.40;69.60;;;;;;5071933;28;20017;-60
2021/01/15 02:51:08;;;;;;;23.10;14.30;;;0.30;69.70;;;;;;5072357;28;20025;-60
2021/01/15 02:53:34;;;;;;;24.15;14.85;;;0.30;69.90;;;;;;5071645;28;20103;-60
2021/01/15 02:56:00;;;;;;;19.83;13.52;;;0.30;70.10;;;;;;5072215;28;20108;-60
2021/01/15 02:58:26;;;;;;;21.05;13.63;;;0.40;70.10;;;;;;5074693;28;20032;-60
2021/01/15 03:00:51;;;;;;;21.73;12.68;;;0.40;70.10;;;;;;5071283;28;20031;-60
2021/01/15 03:03:30;;;;;;;22.42;14.10;;;0.40;70.10;;;;;;5075605;28;20468;-58
2021/01/15 03:06:11;;;;;;;26.30;14.52;;;0.40;70.10;;;;;;5075911;28;20406;-57
2021/01/15 03:08:38;;;;;;;24.42;13.45;;;0.40;70.30;;;;;;5075229;28;20062;-58
2021/01/15 03:11:05;;;;;;;22.35;13.10;;;0.40;70.10;;;;;;5066331;28;20116;-60
2021/01/15 03:13:32;;;;;;;19.67;13.00;;;0.40;70.10;;;;;;5074504;28;20416;-59
2021/01/15 03:16:02;;;;;;;19.90;12.60;;;0.40;69.90;;;;;;5075212;28;20033;-60
2021/01/15 03:18:30;;;;;;;21.25;13.15;;;0.40;70.00;;;;;;5063192;28;20032;-59
2021/01/15 03:21:00;;;;;;;24.33;14.15;;;0.30;70.00;;;;;;5075209;28;20489;-59
2021/01/15 03:23:26;;;;;;;24.30;14.05;;;0.40;70.30;;;;;;5072887;28;20029;-58
2021/01/15 03:25:52;;;;;;;27.02;16.20;;;0.40;70.20;;;;;;5074533;28;20047;-59
2021/01/15 03:28:17;;;;;;;20.98;12.98;;;0.50;70.30;;;;;;5075019;28;20104;-58
2021/01/15 03:30:43;;;;;;;23.05;12.80;;;0.50;70.30;;;;;;5072510;28;20031;-58
2021/01/15 03:33:09;;;;;;;21.02;12.90;;;0.50;70.10;;;;;;5073851;28;20036;-59
2021/01/15 03:35:34;;;;;;;23.15;14.13;;;0.50;69.80;;;;;;5074647;28;20047;-59
2021/01/15 03:38:09;;;;;;;22.60;13.90;;;0.50;69.60;;;;;;5075020;28;20103;-60
2021/01/15 03:40:43;;;;;;;20.27;13.32;;;0.50;69.70;;;;;;5065493;28;20020;-58
2021/01/15 03:43:16;;;;;;;22.90;14.00;;;0.50;69.70;;;;;;5075148;28;20038;-60
2021/01/15 03:45:43;;;;;;;23.42;14.27;;;0.50;70.40;;;;;;5073755;28;20032;-59
2021/01/15 03:48:10;;;;;;;21.60;13.40;;;0.50;69.90;;;;;;5074962;28;20029;-60
2021/01/15 03:50:36;;;;;;;21.13;14.40;;;0.50;69.80;;;;;;5075025;28;20138;-60
2021/01/15 03:53:03;;;;;;;22.60;14.07;;;0.50;69.80;;;;;;5069056;28;20491;-57
2021/01/15 03:55:29;;;;;;;26.90;15.32;;;0.50;69.60;;;;;;5069417;28;20442;-60
2021/01/15 03:57:54;;;;;;;21.65;13.85;;;0.50;69.70;;;;;;5074531;28;20032;-58
2021/01/15 04:00:20;;;;;;;21.70;14.48;;;0.40;70.40;;;;;;5063903;28;20029;-59
2021/01/15 04:02:46;;;;;;;27.35;14.82;;;0.40;69.80;;;;;;5064494;28;20119;-59
2021/01/15 04:05:13;;;;;;;23.48;14.90;;;0.40;69.90;;;;;;5074034;28;20105;-59
2021/01/15 04:07:43;;;;;;;19.75;13.07;;;0.40;69.90;;;;;;5073289;28;20033;-58
2021/01/15 04:10:11;;;;;;;24.13;14.10;;;0.40;69.90;;;;;;5067442;28;20483;-60
2021/01/15 04:12:38;;;;;;;25.63;14.57;;;0.40;69.90;;;;;;5070373;28;20472;-60
2021/01/15 04:15:17;;;;;;;26.45;16.88;;;0.40;69.90;;;;;;5069113;28;20037;-58
2021/01/15 04:17:44;;;;;;;24.65;15.32;;;0.40;70.00;;;;;;5067097;28;20464;-60
2021/01/15 04:20:12;;;;;;;23.67;14.05;;;0.40;70.10;;;;;;5073810;28;20024;-59
2021/01/15 04:22:40;;;;;;;27.30;17.30;;;0.40;70.30;;;;;;5074350;28;21262;-59
2021/01/15 04:25:07;;;;;;;29.80;18.42;;;0.40;70.10;;;;;;5065364;28;20028;-60
2021/01/15 04:27:35;;;;;;;31.17;17.95;;;0.40;70.30;;;;;;5057765;28;20021;-60
2021/01/15 04:30:03;;;;;;;27.35;15.90;;;0.40;70.40;;;;;;5073166;28;20024;-60
2021/01/15 04:32:30;;;;;;;29.25;18.65;;;0.50;70.40;;;;;;5068995;28;20087;-60
2021/01/15 04:34:56;;;;;;;25.58;15.68;;;0.50;70.30;;;;;;5057028;28;20542;-60
2021/01/15 04:37:22;;;;;;;24.20;14.68;;;0.50;70.10;;;;;;5067609;28;20029;-60
2021/01/15 04:39:47;;;;;;;28.80;17.48;;;0.50;70.10;;;;;;5070730;28;20047;-59
2021/01/15 04:42:15;;;;;;;21.77;13.98;;;0.50;70.00;;;;;;5072978;28;20040;-60
2021/01/15 04:44:42;;;;;;;26.10;15.80;;;0.50;69.90;;;;;;5073118;28;20024;-59
2021/01/15 04:47:09;;;;;;;23.77;15.85;;;0.40;69.80;;;;;;5073650;28;20032;-59
2021/01/15 04:49:38;;;;;;;22.40;14.45;;;0.40;70.00;;;;;;5073446;28;20023;-59
2021/01/15 04:52:09;;;;;;;24.27;13.98;;;0.40;70.20;;;;;;5073598;28;20032;-60
2021/01/15 04:54:52;;;;;;;23.58;15.00;;;0.50;70.30;;;;;;5062731;28;20032;-60
2021/01/15 04:57:19;;;;;;;23.85;14.73;;;0.40;70.30;;;;;;5073591;28;21428;-60
2021/01/15 04:59:46;;;;;;;22.90;14.23;;;0.50;70.50;;;;;;5063626;28;20032;-59
2021/01/15 05:02:14;;;;;;;22.17;14.27;;;0.50;70.60;;;;;;5060246;28;20032;-60
2021/01/15 05:04:41;;;;;;;30.65;18.17;;;0.50;70.50;;;;;;5073289;28;20040;-60
2021/01/15 05:07:08;;;;;;;21.88;14.40;;;0.60;70.70;;;;;;5066031;28;20068;-60
2021/01/15 05:09:42;;;;;;;28.15;17.02;;;0.70;70.50;;;;;;5072890;28;20158;-59
2021/01/15 05:12:10;;;;;;;28.42;17.67;;;0.70;71.20;;;;;;5073253;28;20104;-60
2021/01/15 05:14:36;;;;;;;22.67;14.93;;;0.80;70.70;;;;;;5072282;28;20419;-60
2021/01/15 05:17:06;;;;;;;23.92;16.60;;;0.80;70.80;;;;;;5060392;28;20025;-58
2021/01/15 05:19:37;;;;;;;27.48;16.60;;;0.90;70.80;;;;;;5071630;28;20029;-58
2021/01/15 05:22:03;;;;;;;23.50;14.70;;;0.90;70.70;;;;;;5073267;28;20029;-60
2021/01/15 05:24:28;;;;;;;23.67;15.63;;;1.00;70.50;;;;;;5070202;28;20019;-59
2021/01/15 05:26:54;;;;;;;24.33;15.02;;;1.00;70.20;;;;;;5073127;28;20078;-60
2021/01/15 05:29:20;;;;;;;27.15;16.08;;;1.00;70.50;;;;;;5071157;28;20017;-60
2021/01/15 05:31:50;;;;;;;26.77;15.32;;;1.00;70.70;;;;;;5071626;28;20028;-60
2021/01/15 05:34:16;;;;;;;27.73;15.82;;;1.00;70.60;;;;;;5070206;28;20024;-59
2021/01/15 05:36:42;;;;;;;23.63;14.93;;;1.00;70.60;;;;;;5072794;28;20021;-60
2021/01/15 05:39:25;;;;;;;22.67;14.70;;;1.10;70.70;;;;;;5072952;28;20382;-60
2021/01/15 05:42:02;;;;;;;23.35;15.43;;;1.10;70.50;;;;;;5065903;28;20029;-59
2021/01/15 05:44:31;;;;;;;26.02;16.52;;;1.10;70.50;;;;;;5059732;28;20564;-59
2021/01/15 05:47:00;;;;;;;26.10;17.05;;;1.10;70.60;;;;;;5065897;28;20020;-59
2021/01/15 05:49:27;;;;;;;27.30;16.17;;;1.10;70.60;;;;;;5070010;28;20121;-60
2021/01/15 05:51:53;;;;;;;25.95;14.95;;;1.20;70.70;;;;;;5072458;28;20020;-59
2021/01/15 05:54:33;;;;;;;29.63;17.63;;;1.10;70.60;;;;;;5065132;28;20075;-59
2021/01/15 05:56:59;;;;;;;26.33;16.75;;;1.20;70.60;;;;;;5065951;28;20392;-60
2021/01/15 05:59:26;;;;;;;26.70;15.48;;;1.20;70.40;;;;;;5069684;28;20056;-59
2021/01/15 06:01:54;;;;;;;22.83;13.13;;;1.10;70.00;;;;;;5057453;28;20083;-60
2021/01/15 06:04:32;;;;;;;23.30;13.20;;;1.10;70.00;;;;;;5072535;28;20031;-60
2021/01/15 06:06:59;;;;;;;20.80;12.13;;;0.90;69.70;;;;;;5072003;28;20464;-60
2021/01/15 06:09:24;;;;;;;19.67;11.50;;;0.80;69.60;;;;;;5072330;28;20032;-59
2021/01/15 06:11:52;;;;;;;19.00;10.98;;;0.60;69.90;;;;;;5070623;28;20530;-58
2021/01/15 06:14:20;;;;;;;16.88;11.43;;;0.50;69.90;;;;;;5072098;28;20032;-60
2021/01/15 06:16:46;;;;;;;18.00;11.00;;;0.40;70.10;;;;;;5071993;28;20016;-60
2021/01/15 06:19:12;;;;;;;22.98;12.13;;;0.40;70.10;;;;;;5067640;28;20045;-59
2021/01/15 06:21:48;;;;;;;21.38;11.40;;;0.30;70.10;;;;;;5072395;28;20094;-59
2021/01/15 06:24:21;;;;;;;18.30;10.40;;;0.20;70.10;;;;;;5071472;28;20089;-59
2021/01/15 06:27:03;;;;;;;16.42;10.40;;;0.10;70.20;;;;;;5072163;28;20413;-60
2021/01/15 06:29:43;;;;;;;18.15;10.02;;;0.10;70.80;;;;;;5070894;28;20396;-59
2021/01/15 06:32:10;;;;;;;19.00;10.60;;;-0.10;70.30;;;;;;5076154;28;20036;-58
2021/01/15 06:34:46;;;;;;;15.82;10.23;;;-0.10;70.50;;;;;;5072341;28;20033;-59
2021/01/15 06:37:19;;;;;;;16.80;10.40;;;-0.20;70.70;;;;;;5076421;28;20512;-58
2021/01/15 06:40:04;;;;;;;17.65;10.63;;;-0.30;70.80;;;;;;5072971;28;20468;-58
2021/01/15 06:42:30;;;;;;;15.43;9.35;;;-0.30;71.10;;;;;;5061807;28;20067;-59
2021/01/15 06:44:57;;;;;;;18.17;10.27;;;-0.30;71.40;;;;;;5066676;28;20419;-60
2021/01/15 06:47:27;;;;;;;17.48;10.30;;;-0.30;71.30;;;;;;5071408;28;20111;-58
2021/01/15 06:49:56;;;;;;;14.63;9.25;;;-0.40;71.40;;;;;;5069964;28;20464;-60
2021/01/15 06:52:27;;;;;;;15.05;9.65;;;-0.30;71.70;;;;;;5068964;28;20024;-56
2021/01/15 06:54:54;;;;;;;14.95;9.77;;;-0.30;71.50;;;;;;5062816;28;20097;-60
2021/01/15 06:57:29;;;;;;;17.90;10.30;;;-0.40;71.30;;;;;;5064359;28;20039;-60
2021/01/15 06:59:58;;;;;;;15.57;9.52;;;-0.40;71.30;;;;;;5065138;28;21707;-60
2021/01/15 07:02:44;;;;;;;16.10;9.00;;;-0.40;71.00;;;;;;5064906;28;20047;-60
2021/01/15 07:05:15;;;;;;;16.25;9.60;;;-0.40;71.10;;;;;;5060526;28;20021;-60
2021/01/15 07:07:42;;;;;;;16.85;10.93;;;-0.50;71.00;;;;;;5063655;28;20052;-60
2021/01/15 07:10:08;;;;;;;17.38;10.18;;;-0.60;71.00;;;;;;5067425;28;20028;-60
2021/01/15 07:12:42;;;;;;;17.48;10.07;;;-0.70;71.10;;;;;;5067282;28;20025;-60
2021/01/15 07:15:14;;;;;;;18.05;10.63;;;-0.70;71.30;;;;;;5057681;28;20034;-60
2021/01/15 07:17:46;;;;;;;16.08;9.35;;;-0.80;71.40;;;;;;5061105;28;20033;-59
2021/01/15 07:20:14;;;;;;;15.93;9.63;;;-0.70;71.20;;;;;;5067231;28;20111;-60
2021/01/15 07:22:49;;;;;;;16.48;10.00;;;-0.80;71.00;;;;;;5061077;28;20409;-60
2021/01/15 07:25:16;;;;;;;15.10;9.48;;;-0.80;70.90;;;;;;5064207;28;20346;-60
2021/01/15 07:27:42;;;;;;;16.17;10.20;;;-0.80;71.30;;;;;;5058065;28;21475;-60
2021/01/15 07:30:13;;;;;;;16.48;10.60;;;-0.80;71.00;;;;;;5057529;28;20038;-60
2021/01/15 07:32:40;;;;;;;15.43;10.10;;;-0.80;70.80;;;;;;5056470;28;20021;-58
2021/01/15 07:35:13;;;;;;;16.02;9.68;;;-0.90;70.90;;;;;;5060917;28;20044;-60
2021/01/15 07:37:39;;;;;;;18.63;11.43;;;-0.90;71.10;;;;;;5057171;28;20036;-59
2021/01/15 07:40:16;;;;;;;16.23;10.15;;;-0.80;71.00;;;;;;5060332;28;20024;-59
2021/01/15 07:42:59;;;;;;;17.55;10.48;;;-0.80;70.80;;;;;;5060942;28;20498;-59
2021/01/15 07:45:27;;;;;;;20.08;10.98;;;-0.80;70.90;;;;;;5060886;28;20059;-58
2021/01/15 07:48:02;;;;;;;17.45;10.55;;;-0.80;70.80;;;;;;5059964;28;20097;-60
2021/01/15 07:50:32;;;;;;;17.45;10.70;;;-0.80;70.80;;;;;;5060977;28;20039;-61
2021/01/15 07:53:08;;;;;;;18.02;10.93;;;-0.80;70.60;;;;;;5059227;28;21432;-61
2021/01/15 07:55:53;;;;;;;19.33;11.52;;;-0.70;70.50;;;;;;5054434;28;20070;-61
2021/01/15 07:58:21;;;;;;;20.30;11.68;;;-0.70;70.40;;;;;;5071836;28;20025;-60
2021/01/15 08:00:48;;;;;;;16.75;10.77;;;-0.80;70.20;;;;;;5054266;28;20041;-61
2021/01/15 08:03:15;;;;;;;18.98;10.95;;;-0.80;70.20;;;;;;5055143;28;20033;-60
2021/01/15 08:05:46;;;;;;;21.27;11.68;;;-0.70;70.60;;;;;;5055226;28;20028;-61
2021/01/15 08:08:17;;;;;;;15.82;10.32;;;-0.70;70.60;;;;;;5055315;28;20386;-61
2021/01/15 08:10:45;;;;;;;18.13;10.52;;;-0.70;70.70;;;;;;5048380;28;20474;-60
2021/01/15 08:13:23;;;;;;;16.15;9.93;;;-0.70;70.60;;;;;;5045450;28;20476;-59
2021/01/15 08:15:50;;;;;;;19.38;10.70;;;-0.60;70.40;;;;;;5050955;28;20052;-60
2021/01/15 08:18:16;;;;;;;17.42;10.57;;;-0.60;70.20;;;;;;5054346;28;20035;-60
2021/01/15 08:20:54;;;;;;;18.42;11.30;;;-0.60;70.30;;;;;;5054443;28;20038;-60
2021/01/15 08:23:24;;;;;;;16.17;9.93;;;-0.60;70.20;;;;;;5052839;28;20029;-60
2021/01/15 08:26:21;;;;;;;20.70;11.13;;;-0.60;70.40;;;;;;5053670;28;20043;-60
2021/01/15 08:29:07;;;;;;;14.35;10.02;;;-0.60;70.40;;;;;;5049932;28;20082;-61
2021/01/15 08:31:33;;;;;;;16.95;10.70;;;-0.50;70.40;;;;;;5056313;28;20158;-61
2021/01/15 08:34:11;;;;;;;20.40;10.85;;;-0.50;70.50;;;;;;5053392;28;20044;-61
2021/01/15 08:36:40;;;;;;;17.38;9.88;;;-0.50;70.30;;;;;;5050336;28;20036;-61
2021/01/15 08:39:08;;;;;;;17.42;10.10;;;-0.50;70.40;;;;;;5056309;28;20135;-61
2021/01/15 08:41:34;;;;;;;18.65;10.05;;;-0.40;70.20;;;;;;5054299;28;20098;-61
2021/01/15 08:44:00;;;;;;;18.40;11.73;;;-0.40;70.30;;;;;;5053426;28;20129;-61
2021/01/15 08:46:27;;;;;;;18.20;10.57;;;-0.50;70.10;;;;;;5052202;28;20797;-61
2021/01/15 08:48:52;;;;;;;18.85;10.38;;;-0.50;69.90;;;;;;5055751;28;20048;-60
2021/01/15 08:51:24;;;;;;;15.77;10.07;;;-0.50;70.70;;;;;;5054319;28;20132;-60
2021/01/15 08:54:04;;;;;;;13.88;8.70;;;-0.50;70.20;;;;;;5054069;28;20059;-60
2021/01/15 08:56:43;;;;;;;14.43;9.00;;;-0.50;70.10;;;;;;5052020;28;20036;-61
2021/01/15 08:59:27;;;;;;;14.65;8.90;;;-0.50;69.70;;;;;;5054999;28;20111;-61
2021/01/15 09:02:05;;;;;;;16.15;9.30;;;-0.60;69.60;;;;;;5052478;28;20051;-61
2021/01/15 09:04:33;;;;;;;15.57;8.57;;;-0.70;69.70;;;;;;5052822;28;20020;-58
2021/01/15 09:07:04;;;;;;;13.82;8.65;;;-0.70;69.60;;;;;;5053000;28;20534;-60
2021/01/15 09:09:32;;;;;;;15.10;9.02;;;-0.70;69.50;;;;;;5057662;28;20025;-60
2021/01/15 09:12:08;;;;;;;13.70;8.63;;;-0.70;69.50;;;;;;5055498;28;20043;-60
2021/01/15 09:14:38;;;;;;;13.60;8.00;;;-0.80;70.00;;;;;;5059115;28;20032;-60
2021/01/15 09:17:08;;;;;;;12.60;8.43;;;-0.70;70.20;;;;;;5055837;28;20048;-60
2021/01/15 09:19:35;;;;;;;12.73;7.45;;;-0.70;70.30;;;;;;5059508;28;20047;-60
2021/01/15 09:22:04;;;;;;;13.65;8.43;;;-0.70;70.10;;;;;;5052265;28;20059;-61
2021/01/15 09:24:35;;;;;;;13.07;8.35;;;-0.70;69.90;;;;;;5050844;28;20029;-59
2021/01/15 09:27:08;;;;;;;14.00;8.63;;;-0.60;70.00;;;;;;5054014;28;20021;-60
2021/01/15 09:29:35;;;;;;;14.32;8.82;;;-0.50;70.00;;;;;;5052936;28;20769;-60
2021/01/15 09:32:01;;;;;;;18.63;9.65;;;-0.50;69.90;;;;;;5056972;28;20538;-60
2021/01/15 09:34:27;;;;;;;11.73;8.48;;;-0.50;69.70;;;;;;5055687;28;20148;-60
2021/01/15 09:36:54;;;;;;;15.75;9.65;;;-0.50;69.40;;;;;;5054553;28;20032;-60
2021/01/15 09:39:22;;;;;;;13.80;8.57;;;-0.60;69.00;;;;;;5054707;28;20046;-60
2021/01/15 09:41:49;;;;;;;12.48;8.00;;;-0.60;69.10;;;;;;5052028;28;20036;-61
2021/01/15 09:44:19;;;;;;;12.52;8.65;;;-0.60;69.30;;;;;;5053704;28;20131;-60
2021/01/15 09:46:46;;;;;;;15.50;9.00;;;-0.60;69.50;;;;;;5054107;28;20495;-60
2021/01/15 09:49:13;;;;;;;11.18;8.30;;;-0.60;69.30;;;;;;5052136;28;20021;-59
2021/01/15 09:51:39;;;;;;;14.45;8.43;;;-0.70;69.00;;;;;;5054066;28;20032;-60
2021/01/15 09:54:05;;;;;;;13.60;8.70;;;-0.70;69.10;;;;;;5049915;28;20033;-60
2021/01/15 09:56:33;;;;;;;11.73;7.88;;;-0.70;69.30;;;;;;5053993;28;20426;-59
2021/01/15 09:59:01;;;;;;;12.15;8.15;;;-0.70;69.40;;;;;;5055753;28;20564;-61
2021/01/15 10:01:29;;;;;;;14.30;8.32;;;-0.60;69.30;;;;;;5053681;28;20021;-60
2021/01/15 10:03:56;;;;;;;12.77;8.60;;;-0.60;68.80;;;;;;5053073;28;20606;-60
2021/01/15 10:06:22;;;;;;;12.10;7.65;;;-0.60;68.30;;;;;;5052830;28;20044;-60
2021/01/15 10:08:48;;;;;;;13.57;8.32;;;-0.60;68.50;;;;;;5055214;28;20079;-59
2021/01/15 10:11:25;;;;;;;12.18;7.60;;;-0.50;68.60;;;;;;5054872;28;20078;-60
2021/01/15 10:13:54;;;;;;;12.23;8.80;;;-0.40;68.10;;;;;;5053357;28;20025;-60
2021/01/15 10:16:20;;;;;;;12.63;7.80;;;-0.40;67.90;;;;;;5050486;28;21768;-59
2021/01/15 10:18:46;;;;;;;10.68;7.35;;;-0.40;67.60;;;;;;5051407;28;20036;-60
2021/01/15 10:21:12;;;;;;;14.60;7.65;;;-0.40;67.40;;;;;;5049747;28;20052;-60
2021/01/15 10:23:38;;;;;;;10.52;7.15;;;-0.30;67.30;;;;;;5050876;28;20029;-61
2021/01/15 10:26:04;;;;;;;9.50;6.65;;;-0.30;66.80;;;;;;5053208;28;20067;-60
2021/01/15 10:28:31;;;;;;;8.95;6.20;;;-0.30;66.70;;;;;;5051295;28;20829;-59
2021/01/15 10:30:57;;;;;;;9.43;6.63;;;-0.30;66.50;;;;;;5053401;28;20139;-60
2021/01/15 10:33:23;;;;;;;9.80;6.30;;;-0.30;66.30;;;;;;5055438;28;20364;-60
2021/01/15 10:35:52;;;;;;;10.73;5.97;;;-0.40;66.30;;;;;;5056796;28;20041;-60
2021/01/15 10:38:18;;;;;;;9.70;6.15;;;-0.40;66.30;;;;;;5055479;28;20040;-60
2021/01/15 10:40:47;;;;;;;10.07;6.80;;;-0.40;66.30;;;;;;5053657;28;20186;-61
2021/01/15 10:43:13;;;;;;;8.18;5.72;;;-0.40;66.10;;;;;;5052783;28;20050;-59
2021/01/15 10:45:39;;;;;;;9.13;5.60;;;-0.50;66.10;;;;;;5054407;28;20025;-60
2021/01/15 10:48:07;;;;;;;11.30;6.53;;;-0.50;66.40;;;;;;5055618;28;20021;-61
2021/01/15 10:50:32;;;;;;;7.50;5.85;;;-0.40;66.60;;;;;;5055310;28;20029;-59
2021/01/15 10:52:58;;;;;;;10.32;6.25;;;-0.30;66.70;;;;;;5054148;28;20025;-61
2021/01/15 10:55:25;;;;;;;9.32;6.88;;;-0.30;66.70;;;;;;5051766;28;20036;-61
2021/01/15 10:57:51;;;;;;;10.70;7.43;;;-0.20;66.60;;;;;;5054010;28;20408;-59
2021/01/15 11:00:17;;;;;;;12.10;7.15;;;-0.20;66.60;;;;;;5054033;28;20043;-60
2021/01/15 11:02:50;;;;;;;13.80;8.80;;;-0.20;66.30;;;;;;5056799;28;20544;-59
2021/01/15 11:05:16;;;;;;;12.95;8.40;;;-0.20;66.20;;;;;;5050503;28;20028;-61
2021/01/15 11:07:44;;;;;;;11.13;8.10;;;-0.20;66.20;;;;;;5050849;28;20025;-60
2021/01/15 11:10:12;;;;;;;10.32;6.68;;;-0.20;66.20;;;;;;5055842;28;20024;-61
2021/01/15 11:12:38;;;;;;;13.75;8.70;;;-0.20;65.70;;;;;;5059670;28;20217;-60
2021/01/15 11:15:04;;;;;;;12.35;8.20;;;-0.30;65.70;;;;;;5060509;28;20083;-60
2021/01/15 11:17:30;;;;;;;12.25;7.97;;;-0.40;65.80;;;;;;5060630;28;20134;-59
2021/01/15 11:19:56;;;;;;;12.13;7.25;;;-0.40;65.80;;;;;;5061262;28;20029;-61
2021/01/15 11:22:22;;;;;;;14.48;9.18;;;-0.50;66.10;;;;;;5060849;28;20507;-59
2021/01/15 11:24:48;;;;;;;13.95;8.52;;;-0.50;66.50;;;;;;5065913;28;20028;-59
2021/01/15 11:27:13;;;;;;;15.60;9.43;;;-0.50;66.40;;;;;;5059105;28;20554;-58
2021/01/15 11:29:39;;;;;;;13.18;8.50;;;-0.50;66.00;;;;;;5056899;28;20028;-60
2021/01/15 11:32:05;;;;;;;11.75;8.45;;;-0.60;64.90;;;;;;5056877;28;20044;-60
2021/01/15 11:34:32;;;;;;;11.68;7.75;;;-0.60;64.70;;;;;;5065176;28;20049;-59
2021/01/15 11:36:57;;;;;;;13.48;8.80;;;-0.70;64.70;;;;;;5058388;28;20040;-60
2021/01/15 11:39:23;;;;;;;12.45;8.18;;;-0.80;64.70;;;;;;5055673;28;20055;-59
2021/01/15 11:41:52;;;;;;;13.25;8.55;;;-0.90;64.70;;;;;;5060672;28;20072;-59
2021/01/15 11:44:18;;;;;;;12.88;8.07;;;-0.90;64.40;;;;;;5054578;28;20480;-59
2021/01/15 11:46:44;;;;;;;13.00;7.95;;;-1.00;63.80;;;;;;5059413;28;20110;-60
2021/01/15 11:49:09;;;;;;;11.85;7.57;;;-1.10;63.70;;;;;;5057344;28;20504;-59
2021/01/15 11:51:35;;;;;;;12.43;7.85;;;-1.20;63.70;;;;;;5054767;28;20024;-60
2021/01/15 11:54:01;;;;;;;11.25;7.28;;;-1.30;63.90;;;;;;5058255;28;20123;-60
2021/01/15 11:56:27;;;;;;;11.25;7.38;;;-1.30;64.00;;;;;;5056479;28;20033;-60
2021/01/15 11:58:53;;;;;;;12.20;7.68;;;-1.20;63.60;;;;;;5057695;28;20032;-60
2021/01/15 12:01:22;;;;;;;12.43;8.10;;;-1.30;63.00;;;;;;5055330;28;20043;-59
2021/01/15 12:03:49;;;;;;;9.90;6.50;;;-1.30;62.80;;;;;;5057610;28;20469;-59
2021/01/15 12:06:14;;;;;;;12.38;6.65;;;-1.40;62.10;;;;;;5056056;28;20056;-59
2021/01/15 12:08:40;;;;;;;10.38;6.65;;;-1.50;61.90;;;;;;5054769;28;20535;-59
2021/01/15 12:11:07;;;;;;;11.85;7.15;;;-1.60;61.70;;;;;;5057234;28;20067;-59
2021/01/15 12:13:36;;;;;;;11.00;7.20;;;-1.70;62.20;;;;;;5058847;28;20033;-59
2021/01/15 12:16:02;;;;;;;11.85;6.95;;;-1.60;62.40;;;;;;5068116;28;20033;-59
2021/01/15 12:18:28;;;;;;;10.52;7.60;;;-1.60;62.10;;;;;;5060654;28;21898;-59
2021/01/15 12:20:54;;;;;;;17.42;8.18;;;-1.70;61.90;;;;;;5065743;28;20079;-60
2021/01/15 12:23:22;;;;;;;10.10;7.20;;;-1.70;61.70;;;;;;5057805;28;20035;-59
2021/01/15 12:25:48;;;;;;;15.05;8.60;;;-1.70;61.70;;;;;;5060083;28;20159;-60
2021/01/15 12:28:16;;;;;;;11.52;7.85;;;-1.80;61.30;;;;;;5053425;28;20028;-59
2021/01/15 12:30:42;;;;;;;11.10;7.03;;;-1.90;61.00;;;;;;5059526;28;20024;-60
2021/01/15 12:33:15;;;;;;;11.55;7.78;;;-2.00;61.60;;;;;;5057657;28;20075;-58
2021/01/15 12:35:45;;;;;;;13.57;8.20;;;-2.10;61.50;;;;;;5056754;28;20123;-59
2021/01/15 12:38:13;;;;;;;11.63;7.32;;;-2.10;61.70;;;;;;5059445;28;20369;-57
2021/01/15 12:40:39;;;;;;;10.98;7.35;;;-2.10;61.70;;;;;;5055245;28;20621;-59
2021/01/15 12:43:06;;;;;;;10.27;7.40;;;-2.10;61.30;;;;;;5060433;28;20059;-59
2021/01/15 12:45:33;;;;;;;13.45;7.50;;;-2.10;60.90;;;;;;5055973;28;20021;-58